Terminal Aerodrome Forecast
Issued by NWS

Home | Current Version | Previous Version | Text Only | Print | Product List | Glossary On
Versions: 1 2 3 4 5 6 7 8 9 10 11 12 13 14 15 16 17 18 19 20 21 22 23 24 25 26 27 28 29
000
FTUS45 KBOU 221428 AAA
TAFBJC
TAF AMD
KBJC 221428Z 2214/2312 08008KT P6SM FEW120
     FM221700 27010G18KT P6SM FEW120 SCT180
     FM221900 28014G25KT P6SM SCT120 BKN180
     FM230100 24012KT P6SM SCT100 BKN150
     FM230300 30012KT P6SM SCT100 BKN150
     FM231000 35012KT P6SM SCT070 BKN100=

USA.gov is the U.S. government's official web portal to all federal, state and local government web resources and services.